Time;durP1;ratioP1;P1;durP2;ratioP2;P2;SDS_P1;SDS_P2;PMS_P1;PMS_P2;Temp;Humidity;BMP_temperature;BMP_pressure;BME280_temperature;BME280_humidity;BME280_pressure;Samples;Min_cycle;Max_cycle;Signal;HPM_P1;HPM_P2
2023/01/04 00:00:15;;;;;;;38.95;17.75;;;;;;;3.24;85.01;100304.84;1747829;82;20991;-39
2023/01/04 00:02:41;;;;;;;34.50;19.25;;;;;;;3.29;84.84;100305.63;1747784;81;21022;-40
2023/01/04 00:05:07;;;;;;;42.53;20.00;;;;;;;3.34;84.68;100298.66;1747737;81;20987;-41
2023/01/04 00:07:33;;;;;;;31.55;17.12;;;;;;;3.34;84.52;100300.41;1747798;82;20979;-40
2023/01/04 00:09:59;;;;;;;32.03;17.37;;;;;;;3.35;84.50;100299.54;1747743;81;21167;-42
2023/01/04 00:12:25;;;;;;;30.30;16.37;;;;;;;3.38;84.57;100291.24;1747812;82;20991;-40
2023/01/04 00:14:50;;;;;;;31.23;16.82;;;;;;;3.41;84.49;100284.72;1747971;82;21536;-40
2023/01/04 00:17:16;;;;;;;32.48;17.48;;;;;;;3.41;84.40;100282.12;1747845;82;21034;-40
2023/01/04 00:19:42;;;;;;;29.92;16.95;;;;;;;3.46;84.61;100295.94;1747861;82;21078;-39
2023/01/04 00:22:08;;;;;;;33.58;17.15;;;;;;;3.49;84.44;100291.58;1747771;82;21038;-39
2023/01/04 00:24:33;;;;;;;31.52;16.17;;;;;;;3.50;84.45;100295.92;1747807;82;21034;-41
2023/01/04 00:26:59;;;;;;;36.00;16.45;;;;;;;3.50;84.28;100296.77;1747827;82;20990;-40
2023/01/04 00:29:25;;;;;;;33.42;16.45;;;;;;;3.48;84.39;100292.48;1747906;81;21057;-43
2023/01/04 00:31:51;;;;;;;31.12;16.75;;;;;;;3.51;84.38;100297.63;1747924;81;21043;-38
2023/01/04 00:34:17;;;;;;;34.95;17.92;;;;;;;3.54;84.42;100302.80;1747940;82;21512;-41
2023/01/04 00:36:44;;;;;;;30.85;17.92;;;;;;;3.58;84.30;100295.39;1748130;82;21446;-38
2023/01/04 00:39:14;;;;;;;33.30;18.70;;;;;;;3.59;84.23;100301.02;1747863;82;21022;-41
2023/01/04 00:41:47;;;;;;;39.45;19.35;;;;;;;3.63;84.13;100294.91;1747889;82;20987;-42
2023/01/04 00:44:13;;;;;;;36.45;19.40;;;;;;;3.60;84.35;100297.11;1747929;82;21004;-37
2023/01/04 00:46:40;;;;;;;41.37;21.00;;;;;;;3.59;84.10;100298.42;1747816;82;20995;-38
2023/01/04 00:49:09;;;;;;;41.60;20.65;;;;;;;3.55;83.94;100296.74;1748004;82;21026;-41
2023/01/04 00:51:37;;;;;;;50.52;23.25;;;;;;;3.52;83.73;100299.36;1747852;81;21398;-39
2023/01/04 00:54:05;;;;;;;46.65;23.65;;;;;;;3.44;83.92;100304.20;1747881;82;20999;-39
2023/01/04 00:56:32;;;;;;;47.15;25.05;;;;;;;3.34;84.06;100297.80;1751744;81;21549;-43
2023/01/04 00:59:01;;;;;;;59.13;26.15;;;;;;;3.26;84.56;100303.94;1753848;80;20990;-40
2023/01/04 01:01:29;;;;;;;52.45;24.85;;;;;;;3.24;84.51;100302.23;1753614;81;21526;-40
2023/01/04 01:03:57;;;;;;;57.98;26.55;;;;;;;3.19;84.73;100307.46;1753800;82;21007;-43
2023/01/04 01:06:24;;;;;;;45.08;24.32;;;;;;;3.14;84.75;100307.08;1753690;81;20990;-38
2023/01/04 01:08:51;;;;;;;48.90;24.85;;;;;;;3.07;85.15;100311.46;1753861;81;21583;-41
2023/01/04 01:11:19;;;;;;;52.37;25.00;;;;;;;3.03;85.26;100307.17;1753912;82;21520;-38
2023/01/04 01:13:45;;;;;;;;;;;;;;;2.99;85.52;100306.78;1756248;81;21196;-38
2023/01/04 01:16:15;;;;;;;57.17;26.65;;;;;;;2.92;85.54;100305.95;1753703;82;20142;-39
2023/01/04 01:18:43;;;;;;;55.73;24.87;;;;;;;2.92;85.47;100305.95;1753948;81;20983;-42
2023/01/04 01:21:20;;;;;;;55.17;25.32;;;;;;;2.91;85.77;100313.34;1753774;81;21030;-39
2023/01/04 01:23:47;;;;;;;55.65;26.73;;;;;;;2.92;86.02;100309.85;1752760;82;21546;-39
2023/01/04 01:26:16;;;;;;;47.60;23.75;;;;;;;2.96;85.91;100318.04;1753805;81;21018;-42
2023/01/04 01:28:43;;;;;;;52.65;24.57;;;;;;;2.98;85.97;100318.89;1753668;82;21516;-39
2023/01/04 01:31:20;;;;;;;51.68;24.65;;;;;;;3.02;85.95;100314.53;1753584;82;21043;-41
2023/01/04 01:33:48;;;;;;;47.60;25.43;;;;;;;3.06;86.14;100316.25;1753226;82;21011;-41
2023/01/04 01:36:16;;;;;;;53.48;26.40;;;;;;;3.12;86.03;100317.94;1753674;81;20995;-40
2023/01/04 01:38:43;;;;;;;52.85;26.07;;;;;;;3.14;85.92;100313.58;1753402;82;21203;-42
2023/01/04 01:41:17;;;;;;;51.80;24.45;;;;;;;3.15;85.83;100311.42;1753853;80;21007;-39
2023/01/04 01:43:51;;;;;;;46.30;25.88;;;;;;;3.16;85.92;100309.23;1752538;82;20983;-39
2023/01/04 01:46:34;;;;;;;52.38;24.27;;;;;;;3.16;85.93;100304.03;1753730;82;20990;-40
2023/01/04 01:49:05;;;;;;;50.10;24.47;;;;;;;3.15;85.87;100302.32;1753782;81;20991;-38
2023/01/04 01:51:33;;;;;;;48.60;24.45;;;;;;;3.19;85.60;100304.02;1752273;82;20983;-42
2023/01/04 01:54:13;;;;;;;48.25;24.60;;;;;;;3.21;85.67;100304.41;1753765;82;21022;-40
2023/01/04 01:56:41;;;;;;;51.88;24.65;;;;;;;3.18;85.73;100302.27;1753034;80;21067;-41
2023/01/04 01:59:09;;;;;;;44.85;24.37;;;;;;;3.21;85.63;100299.20;1753642;80;21022;-38
2023/01/04 02:01:35;;;;;;;46.63;23.18;;;;;;;3.25;85.71;100289.20;1753598;82;21599;-39
2023/01/04 02:04:03;;;;;;;43.55;22.50;;;;;;;3.30;85.59;100285.27;1753604;81;21006;-38
2023/01/04 02:06:34;;;;;;;45.98;23.25;;;;;;;3.31;85.73;100284.41;1753747;82;21501;-38
2023/01/04 02:09:02;;;;;;;45.17;22.55;;;;;;;3.34;85.73;100280.91;1753587;82;20979;-40
2023/01/04 02:11:28;;;;;;;45.17;22.45;;;;;;;3.40;85.53;100280.41;1753678;80;21026;-41
2023/01/04 02:17:16;;;;;;;40.67;21.65;;;;;;;3.40;85.71;100278.23;1753769;82;21027;-38
2023/01/04 02:20:22;;;;;;;39.53;20.88;;;;;;;3.37;85.76;100273.94;1753674;82;21051;-38
2023/01/04 02:23:11;;;;;;;41.02;21.52;;;;;;;3.37;85.79;100276.98;1753720;82;21011;-39
2023/01/04 02:26:10;;;;;;;39.78;22.22;;;;;;;3.34;85.74;100275.26;1753648;82;20995;-39
2023/01/04 02:29:10;;;;;;;40.80;22.10;;;;;;;3.28;85.69;100271.43;1753617;81;21039;-42
2023/01/04 02:31:43;;;;;;;42.65;22.55;;;;;;;3.26;85.33;100265.39;1753628;81;20999;-41
2023/01/04 02:34:29;;;;;;;40.52;20.85;;;;;;;3.15;86.00;100261.59;1753582;82;21021;-39
2023/01/04 02:37:25;;;;;;;42.60;22.13;;;;;;;3.10;86.25;100258.16;1747530;82;21014;-41
2023/01/04 02:46:32;;;;;;;46.68;22.20;;;;;;;2.93;86.29;100257.44;1679710;85;20997;-38
2023/01/04 02:52:22;;;;;;;37.93;20.10;;;;;;;2.81;86.69;100237.19;1662722;86;21062;-38
2023/01/04 02:54:52;;;;;;;42.78;22.27;;;;;;;2.74;87.04;100237.27;1663116;85;20994;-41
2023/01/04 02:57:45;;;;;;;36.45;20.48;;;;;;;2.65;86.93;100231.25;1663105;85;21482;-39
2023/01/04 03:00:16;;;;;;;37.40;21.15;;;;;;;2.59;87.59;100236.95;1662655;85;21483;-39
2023/01/04 03:06:18;;;;;;;38.20;20.82;;;;;;;2.54;87.38;100225.73;1663138;86;21085;-41
2023/01/04 03:09:09;;;;;;;34.18;20.70;;;;;;;2.46;87.84;100225.35;1702939;83;21457;-38
2023/01/04 03:14:31;;;;;;;36.70;21.37;;;;;;;2.40;88.27;100210.25;1707239;83;20999;-41
2023/01/04 03:16:58;;;;;;;37.73;22.10;;;;;;;2.39;88.28;100210.69;1706046;84;20991;-38
2023/01/04 03:36:17;;;;;;;44.23;24.82;;;;;;;2.16;88.71;100185.33;1664745;84;20992;-40
2023/01/04 03:51:14;;;;;;;48.98;25.55;;;;;;;2.03;89.35;100176.77;1724991;82;21025;-39
2023/01/04 03:53:45;;;;;;;43.17;24.65;;;;;;;1.98;89.82;100172.88;1725118;82;21007;-40
2023/01/04 03:56:12;;;;;;;40.78;25.20;;;;;;;1.98;89.77;100171.59;1689221;83;21047;-39
2023/01/04 03:58:38;;;;;;;45.87;25.57;;;;;;;1.99;89.76;100169.44;1725343;83;21010;-41
2023/01/04 04:01:05;;;;;;;44.93;25.32;;;;;;;1.96;89.89;100168.59;1724721;83;21063;-38
2023/01/04 04:09:00;;;;;;;51.88;26.75;;;;;;;1.89;90.19;100160.86;1723447;83;21144;-40
2023/01/04 04:11:29;;;;;;;46.67;26.30;;;;;;;1.87;90.60;100163.02;1723731;83;21008;-41
2023/01/04 04:13:56;;;;;;;48.75;27.67;;;;;;;1.84;90.82;100153.53;1723509;83;21017;-41
2023/01/04 04:16:22;;;;;;;51.58;27.07;;;;;;;1.86;90.31;100149.20;1724227;82;20986;-39
2023/01/04 04:18:48;;;;;;;50.50;27.60;;;;;;;1.81;90.70;100154.84;1725287;83;21046;-39
2023/01/04 04:21:14;;;;;;;58.30;27.07;;;;;;;1.82;90.87;100150.09;1725026;83;21014;-42
2023/01/04 04:23:40;;;;;;;48.95;27.13;;;;;;;1.83;90.58;100142.72;1725041;83;21042;-40
2023/01/04 04:26:06;;;;;;;50.45;28.30;;;;;;;1.74;90.89;100135.00;1725039;83;21017;-40
2023/01/04 04:28:32;;;;;;;47.45;26.87;;;;;;;1.75;91.08;100128.07;1724992;83;21850;-38
2023/01/04 04:30:58;;;;;;;48.40;26.77;;;;;;;1.75;91.16;100130.66;1725279;83;21508;-38
2023/01/04 04:33:24;;;;;;;49.20;27.75;;;;;;;1.73;91.23;100126.36;1724996;83;21014;-39
2023/01/04 04:35:53;;;;;;;45.30;27.10;;;;;;;1.70;91.22;100124.22;1725032;83;21506;-39
2023/01/04 04:38:20;;;;;;;45.85;26.97;;;;;;;1.74;91.04;100125.92;1724733;83;21002;-38
2023/01/04 04:43:32;;;;;;;52.70;28.00;;;;;;;1.70;90.98;100117.30;1707719;83;21091;-40
2023/01/04 04:45:58;;;;;;;45.38;28.25;;;;;;;1.75;90.83;100124.18;1704782;84;21563;-40
2023/01/04 04:48:23;;;;;;;49.23;29.72;;;;;;;1.72;91.10;100118.59;1704596;84;20988;-38
2023/01/04 04:50:49;;;;;;;52.48;29.15;;;;;;;1.73;91.03;100125.52;1704625;84;21095;-41
2023/01/04 04:53:15;;;;;;;47.73;27.07;;;;;;;1.72;91.10;100118.59;1704647;83;21035;-38
2023/01/04 04:55:41;;;;;;;50.17;28.25;;;;;;;1.71;91.23;100119.03;1704523;84;21004;-41
2023/01/04 04:58:07;;;;;;;47.93;28.35;;;;;;;1.74;91.29;100116.84;1704622;84;21043;-38
2023/01/04 05:00:33;;;;;;;55.17;30.62;;;;;;;1.76;91.20;100118.98;1704635;84;21022;-38
2023/01/04 05:03:00;;;;;;;58.50;30.00;;;;;;;1.78;90.99;100123.72;1704592;84;21055;-40
2023/01/04 05:05:26;;;;;;;55.90;30.20;;;;;;;1.84;90.85;100119.81;1704737;84;21454;-38
2023/01/04 05:07:52;;;;;;;66.20;30.82;;;;;;;1.82;91.02;100118.08;1704551;84;21067;-39
2023/01/04 05:10:18;;;;;;;65.65;29.67;;;;;;;1.75;91.23;100117.28;1704535;84;21055;-40
2023/01/04 05:12:59;;;;;;;60.70;25.90;;;;;;;1.68;91.40;100110.41;1704633;84;21064;-38
2023/01/04 05:15:40;;;;;;;57.25;26.57;;;;;;;1.68;91.46;100106.08;1704602;84;21023;-40
2023/01/04 05:18:08;;;;;;;59.75;28.40;;;;;;;1.61;91.72;100110.88;1704546;84;21007;-40
2023/01/04 05:20:34;;;;;;;55.83;28.67;;;;;;;1.60;92.45;100105.69;1704548;83;21019;-39
2023/01/04 05:23:00;;;;;;;57.55;29.15;;;;;;;1.62;92.60;100106.53;1704621;84;20976;-39
2023/01/04 05:25:26;;;;;;;63.50;28.45;;;;;;;1.63;93.03;100105.68;1704512;84;21011;-38
2023/01/04 05:27:52;;;;;;;60.70;30.92;;;;;;;1.60;93.27;100098.80;1704532;84;21457;-40
2023/01/04 05:33:04;;;;;;;60.60;27.20;;;;;;;1.61;92.81;100094.46;1704548;84;20999;-39
2023/01/04 05:35:30;;;;;;;45.20;23.75;;;;;;;1.58;93.03;100090.58;1704768;84;21034;-40
2023/01/04 05:37:56;;;;;;;57.35;26.82;;;;;;;1.50;93.28;100084.15;1704566;84;21039;-39
2023/01/04 05:40:22;;;;;;;57.50;28.30;;;;;;;1.44;93.47;100072.09;1704587;84;20988;-41
2023/01/04 05:42:48;;;;;;;63.92;26.97;;;;;;;1.44;94.07;100069.50;1704474;84;21552;-40
2023/01/04 05:45:16;;;;;;;63.23;27.25;;;;;;;1.43;94.63;100071.65;1704702;84;21011;-38
2023/01/04 05:47:42;;;;;;;51.45;24.00;;;;;;;1.43;94.67;100071.65;1704808;83;21027;-38
2023/01/04 05:50:10;;;;;;;57.93;26.15;;;;;;;1.42;95.22;100076.42;1704548;83;21011;-40
2023/01/04 05:52:36;;;;;;;61.15;27.55;;;;;;;1.47;94.43;100066.87;1704696;83;20983;-39
2023/01/04 05:55:02;;;;;;;51.33;26.05;;;;;;;1.49;94.59;100062.56;1704639;84;21019;-40
2023/01/04 05:57:28;;;;;;;55.75;24.30;;;;;;;1.55;94.79;100055.18;1704527;83;21062;-41
2023/01/04 05:59:54;;;;;;;59.13;26.80;;;;;;;1.54;95.12;100049.11;1704559;83;21011;-39
2023/01/04 06:02:26;;;;;;;57.35;26.45;;;;;;;1.53;94.86;100046.11;1704485;84;21007;-38
2023/01/04 06:04:52;;;;;;;53.73;24.72;;;;;;;1.54;95.04;100043.92;1704646;84;21007;-38
2023/01/04 06:07:18;;;;;;;52.38;25.52;;;;;;;1.57;94.46;100037.88;1704649;84;21516;-38
2023/01/04 06:09:44;;;;;;;51.55;24.95;;;;;;;1.61;94.07;100039.58;1704509;83;21023;-39
2023/01/04 06:12:10;;;;;;;51.90;24.60;;;;;;;1.64;94.43;100032.23;1704560;84;21011;-40
2023/01/04 06:14:36;;;;;;;54.45;26.35;;;;;;;1.63;94.94;100029.20;1704488;84;21011;-39
2023/01/04 06:17:02;;;;;;;54.13;26.30;;;;;;;1.66;94.77;100034.38;1704572;84;21019;-41
2023/01/04 06:19:28;;;;;;;55.48;24.98;;;;;;;1.67;94.79;100030.89;1704630;84;21011;-41
2023/01/04 06:21:53;;;;;;;51.15;25.72;;;;;;;1.68;94.61;100034.77;1704629;83;21489;-41
2023/01/04 06:24:19;;;;;;;53.08;26.05;;;;;;;1.70;94.59;100025.69;1704568;84;21039;-38
2023/01/04 06:26:45;;;;;;;46.08;24.67;;;;;;;1.69;94.79;100026.55;1704701;84;21577;-38
2023/01/04 06:29:12;;;;;;;47.55;25.72;;;;;;;1.72;94.73;100021.35;1704768;84;21047;-38
2023/01/04 06:31:38;;;;;;;42.33;23.38;;;;;;;1.64;94.82;100018.83;1704454;84;21464;-38
2023/01/04 06:34:04;;;;;;;51.92;23.07;;;;;;;1.64;95.20;100022.70;1704602;84;21038;-39
2023/01/04 06:36:30;;;;;;;47.60;23.83;;;;;;;1.63;94.98;100024.86;1704620;84;21472;-38
2023/01/04 06:38:58;;;;;;;51.10;24.50;;;;;;;1.69;94.92;100022.66;1704591;84;21015;-39
2023/01/04 06:41:24;;;;;;;48.90;24.92;;;;;;;1.68;94.70;100021.81;1704524;84;21003;-38
2023/01/04 06:43:50;;;;;;;52.38;24.15;;;;;;;1.67;94.87;100023.11;1718601;83;21035;-39
2023/01/04 06:46:15;;;;;;;53.87;25.75;;;;;;;1.65;94.98;100036.52;1725096;83;21519;-38
2023/01/04 06:48:41;;;;;;;56.92;26.23;;;;;;;1.70;94.29;100030.87;1724385;83;21014;-37
2023/01/04 06:51:07;;;;;;;51.02;25.25;;;;;;;1.72;94.29;100030.42;1723745;83;21014;-38
2023/01/04 06:53:33;;;;;;;44.08;22.60;;;;;;;1.67;93.73;100030.89;1723786;83;21026;-37
2023/01/04 06:55:59;;;;;;;52.83;25.60;;;;;;;1.66;93.63;100027.89;1724666;83;21042;-37
2023/01/04 06:58:25;;;;;;;50.63;26.65;;;;;;;1.59;93.96;100027.51;1724873;83;21535;-38
2023/01/04 07:00:51;;;;;;;57.10;26.65;;;;;;;1.53;94.23;100024.08;1724970;83;21049;-40
2023/01/04 07:03:17;;;;;;;56.50;27.30;;;;;;;1.54;94.58;100014.56;1725249;83;21448;-40
2023/01/04 07:05:43;;;;;;;56.77;28.75;;;;;;;1.62;94.60;100020.98;1724990;83;21010;-39
2023/01/04 07:08:11;;;;;;;54.67;29.10;;;;;;;1.62;94.09;100011.49;1724909;83;20983;-37
2023/01/04 07:10:38;;;;;;;57.35;30.80;;;;;;;1.61;94.02;100014.95;1725019;83;21535;-40
2023/01/04 07:13:04;;;;;;;53.02;29.57;;;;;;;1.56;94.07;100005.04;1724895;83;21532;-41
2023/01/04 07:15:30;;;;;;;55.48;27.58;;;;;;;1.60;93.97;100001.98;1725197;83;21563;-40
2023/01/04 07:17:56;;;;;;;51.90;26.25;;;;;;;1.61;93.86;99997.24;1724955;83;21046;-38
2023/01/04 07:20:22;;;;;;;47.13;24.80;;;;;;;1.62;93.62;99993.76;1724989;83;21062;-38
2023/01/04 07:22:48;;;;;;;45.35;24.75;;;;;;;1.57;93.69;99985.19;1724873;83;20990;-40
2023/01/04 07:25:14;;;;;;;50.00;26.90;;;;;;;1.62;93.73;99984.69;1724917;83;21002;-40
2023/01/04 07:27:39;;;;;;;52.08;28.52;;;;;;;1.66;93.50;99989.00;1724904;83;21010;-38
2023/01/04 07:30:07;;;;;;;53.80;29.15;;;;;;;1.60;93.62;99982.13;1725112;83;21476;-37
2023/01/04 07:32:32;;;;;;;51.77;27.93;;;;;;;1.61;93.63;99979.09;1725169;83;21009;-37
2023/01/04 07:34:58;;;;;;;53.00;27.52;;;;;;;1.69;93.22;99985.06;1725055;83;21005;-40
2023/01/04 07:37:24;;;;;;;47.98;25.12;;;;;;;1.66;93.52;99987.70;1725109;83;20978;-39
2023/01/04 07:39:49;;;;;;;45.73;25.37;;;;;;;1.73;93.34;99984.19;1725122;83;21010;-38
2023/01/04 07:42:17;;;;;;;47.95;25.17;;;;;;;1.78;93.21;99984.14;1725034;83;20983;-42
2023/01/04 07:44:43;;;;;;;48.08;25.32;;;;;;;1.75;93.11;99992.81;1705964;83;21015;-39
2023/01/04 07:47:09;;;;;;;49.25;25.43;;;;;;;1.80;93.15;99991.05;1704891;84;21003;-39
2023/01/04 07:49:35;;;;;;;49.60;24.75;;;;;;;1.82;93.20;99994.48;1704633;84;20976;-37
2023/01/04 07:52:01;;;;;;;53.73;25.77;;;;;;;1.88;92.98;99990.53;1704703;84;21476;-39
2023/01/04 07:54:27;;;;;;;48.80;26.05;;;;;;;1.89;92.91;99990.08;1704668;84;21046;-38
2023/01/04 07:56:53;;;;;;;50.45;25.92;;;;;;;1.89;92.98;99984.90;1704589;84;21474;-39
2023/01/04 07:59:20;;;;;;;46.65;25.35;;;;;;;1.97;92.80;99982.27;1704640;84;21000;-38
2023/01/04 08:01:47;;;;;;;53.13;24.70;;;;;;;1.97;92.88;99971.44;1704746;84;21004;-39
2023/01/04 08:04:15;;;;;;;51.77;25.48;;;;;;;2.04;92.88;99956.69;1704776;84;21010;-39
2023/01/04 08:06:45;;;;;;;58.10;24.87;;;;;;;2.09;92.76;99952.28;1704776;84;20979;-40
2023/01/04 08:09:12;;;;;;;45.80;22.48;;;;;;;2.08;92.86;99951.88;1704682;83;21015;-42
2023/01/04 08:11:38;;;;;;;;;;;;;;;2.06;92.87;99943.25;1707044;84;21068;-40
2023/01/04 08:14:04;;;;;;;41.63;23.22;;;;;;;2.11;92.73;99933.25;1704663;84;20118;-39
2023/01/04 08:16:33;;;;;;;47.38;22.02;;;;;;;2.18;92.74;99930.58;1706278;84;21007;-41
2023/01/04 08:19:15;;;;;;;43.15;23.87;;;;;;;2.21;92.53;99936.59;1704844;84;21003;-39
2023/01/04 08:21:42;;;;;;;39.85;22.80;;;;;;;2.29;92.59;99942.58;1704733;84;21051;-39
2023/01/04 08:24:11;;;;;;;42.60;23.55;;;;;;;2.34;92.24;99933.88;1704627;84;21611;-38
2023/01/04 08:26:37;;;;;;;40.00;23.30;;;;;;;2.38;92.06;99926.46;1704904;83;20976;-41
2023/01/04 08:29:03;;;;;;;46.48;22.75;;;;;;;2.37;92.40;99923.02;1704606;84;21124;-40
2023/01/04 08:31:31;;;;;;;41.75;23.52;;;;;;;2.43;92.33;99918.19;1704658;84;20992;-41
2023/01/04 08:34:00;;;;;;;40.17;22.45;;;;;;;2.50;92.12;99910.74;1704600;84;21043;-37
2023/01/04 08:36:32;;;;;;;40.88;22.22;;;;;;;2.50;92.21;99896.47;1704565;84;21050;-38
2023/01/04 08:39:01;;;;;;;40.67;23.45;;;;;;;2.63;91.89;99895.42;1704642;84;21011;-39
2023/01/04 08:41:31;;;;;;;41.98;23.35;;;;;;;2.66;91.91;99883.70;1704693;84;21008;-38
2023/01/04 08:43:57;;;;;;;41.85;22.05;;;;;;;2.77;91.81;99881.41;1704500;82;21083;-39
2023/01/04 08:46:23;;;;;;;41.70;22.10;;;;;;;2.79;91.83;99871.41;1704592;84;21003;-39
2023/01/04 08:48:51;;;;;;;43.23;21.68;;;;;;;2.89;91.57;99870.81;1704596;84;21184;-41
2023/01/04 08:51:17;;;;;;;37.20;20.85;;;;;;;2.96;91.43;99865.95;1704787;84;20991;-38
2023/01/04 08:53:43;;;;;;;41.80;20.50;;;;;;;2.96;91.35;99856.86;1704576;84;21003;-38
2023/01/04 08:56:10;;;;;;;34.98;19.82;;;;;;;3.10;91.35;99848.01;1704586;84;21003;-38
2023/01/04 08:58:37;;;;;;;30.80;18.07;;;;;;;3.21;91.15;99847.39;1704886;84;21007;-40
2023/01/04 09:01:07;;;;;;;32.88;16.70;;;;;;;3.39;90.67;99843.63;1704726;83;21008;-40
2023/01/04 09:03:34;;;;;;;30.75;15.88;;;;;;;3.78;90.10;99853.77;1703734;83;21011;-39
2023/01/04 09:06:06;;;;;;;28.75;14.80;;;;;;;4.17;88.54;99849.13;1704820;84;21016;-41
2023/01/04 09:08:33;;;;;;;30.02;15.25;;;;;;;4.40;87.11;99843.42;1704600;84;21405;-37
2023/01/04 09:11:10;;;;;;;25.48;14.55;;;;;;;4.54;86.29;99845.28;1704751;84;21484;-39
2023/01/04 09:13:36;;;;;;;28.75;14.70;;;;;;;4.57;85.98;99846.53;1704824;84;21529;-41
2023/01/04 09:16:05;;;;;;;35.58;14.60;;;;;;;4.50;85.19;99841.04;1703068;84;21050;-39
2023/01/04 09:18:33;;;;;;;22.10;13.40;;;;;;;4.60;85.69;99837.78;1704345;84;22141;-40
2023/01/04 09:21:01;;;;;;;26.95;14.20;;;;;;;4.56;85.35;99838.75;1704724;83;21509;-39
2023/01/04 09:23:30;;;;;;;24.70;13.83;;;;;;;4.61;85.15;99839.51;1704631;83;20971;-39
2023/01/04 09:25:55;;;;;;;22.25;12.78;;;;;;;4.61;85.15;99832.54;1704514;84;21016;-41
2023/01/04 09:28:21;;;;;;;21.35;13.13;;;;;;;4.63;85.17;99826.45;1704547;84;21450;-45
2023/01/04 09:30:47;;;;;;;21.73;13.00;;;;;;;4.68;86.01;99812.88;1704490;83;21470;-43
2023/01/04 09:33:13;;;;;;;20.62;12.73;;;;;;;4.64;86.63;99807.31;1704553;84;20971;-39
2023/01/04 09:35:39;;;;;;;44.40;20.35;;;;;;;4.81;86.14;99810.39;1704525;84;21532;-41
2023/01/04 09:38:04;;;;;;;35.10;18.95;;;;;;;4.85;85.24;99810.72;1704552;84;21011;-39
2023/01/04 09:40:37;;;;;;;29.95;19.00;;;;;;;4.95;85.40;99810.92;1702941;84;21102;-40
2023/01/04 09:43:03;;;;;;;21.27;12.65;;;;;;;5.03;84.99;99795.09;1700545;83;21032;-40
2023/01/04 09:45:30;;;;;;;20.85;11.70;;;;;;;5.11;84.57;99793.59;1703230;83;21228;-43
2023/01/04 09:48:07;;;;;;;25.75;12.65;;;;;;;5.18;84.14;99799.06;1703037;84;21035;-41
2023/01/04 09:50:59;;;;;;;21.97;11.93;;;;;;;5.25;84.02;99781.52;1702953;84;21000;-40
2023/01/04 09:53:33;;;;;;;30.17;13.15;;;;;;;5.32;83.68;99768.28;1702624;84;21047;-40
2023/01/04 09:56:10;;;;;;;23.07;12.43;;;;;;;5.36;82.75;99754.71;1703618;83;20997;-40
2023/01/04 09:58:39;;;;;;;18.10;10.43;;;;;;;5.40;82.41;99744.59;1703202;83;21172;-38
2023/01/04 10:01:19;;;;;;;22.58;11.60;;;;;;;5.45;81.82;99735.36;1704044;84;21059;-39
2023/01/04 10:03:51;;;;;;;27.93;11.53;;;;;;;5.55;82.54;99720.72;1703410;84;21012;-41
2023/01/04 10:06:17;;;;;;;21.97;11.83;;;;;;;5.57;81.11;99712.86;1702592;83;21036;-40
2023/01/04 10:08:43;;;;;;;31.77;12.37;;;;;;;5.59;80.75;99707.14;1702096;83;21002;-40
2023/01/04 10:11:36;;;;;;;24.63;12.93;;;;;;;5.60;80.60;99689.27;1702284;84;21018;-41
2023/01/04 10:14:16;;;;;;;20.97;11.60;;;;;;;5.73;80.80;99691.95;1702403;84;21054;-38
2023/01/04 10:17:14;;;;;;;39.88;11.43;;;;;;;5.79;80.14;99686.16;1702338;83;20998;-41
2023/01/04 10:20:21;;;;;;;27.45;12.68;;;;;;;5.87;80.71;99676.32;1701571;84;20994;-39
2023/01/04 10:23:09;;;;;;;21.52;11.38;;;;;;;5.90;81.10;99662.73;1699930;83;20994;-40
2023/01/04 10:26:05;;;;;;;24.27;12.63;;;;;;;5.92;80.44;99657.01;1702430;84;21010;-41
2023/01/04 10:28:43;;;;;;;30.90;12.23;;;;;;;5.97;80.26;99658.22;1690151;83;21538;-41
2023/01/04 10:31:28;;;;;;;32.50;12.10;;;;;;;5.79;78.38;99639.17;1689472;84;20998;-39
2023/01/04 10:34:16;;;;;;;24.75;12.40;;;;;;;5.81;78.47;99633.00;1696367;82;21015;-42
2023/01/04 10:36:43;;;;;;;26.55;11.73;;;;;;;5.88;79.52;99618.86;1686598;85;21015;-42
2023/01/04 10:39:17;;;;;;;28.55;12.43;;;;;;;5.87;78.81;99610.61;1693527;83;21475;-38
2023/01/04 10:41:54;;;;;;;30.20;13.45;;;;;;;5.92;79.05;99603.95;1716441;82;21451;-40
2023/01/04 10:44:48;;;;;;;27.70;13.78;;;;;;;5.93;78.58;99597.81;1714571;82;21011;-38
2023/01/04 10:47:54;;;;;;;29.80;12.88;;;;;;;6.01;78.69;99593.72;1709705;82;21456;-39
2023/01/04 10:50:59;;;;;;;27.75;13.45;;;;;;;6.06;78.89;99593.12;1728393;82;20999;-39
2023/01/04 10:53:40;;;;;;;31.05;12.10;;;;;;;6.11;78.35;99588.16;1709546;82;20956;-41
2023/01/04 10:56:23;;;;;;;18.75;10.88;;;;;;;6.14;78.16;99577.59;1723297;83;20951;-40
2023/01/04 10:58:57;;;;;;;20.23;10.48;;;;;;;6.17;77.65;99576.66;1729523;82;20986;-39
2023/01/04 11:01:37;;;;;;;24.77;10.38;;;;;;;6.25;78.24;99575.09;1716801;82;21030;-41
2023/01/04 11:04:26;;;;;;;18.55;10.43;;;;;;;6.31;77.99;99567.04;1717769;82;20951;-38
2023/01/04 11:07:16;;;;;;;19.12;10.32;;;;;;;6.28;76.56;99557.56;1708251;82;21010;-40
2023/01/04 11:09:52;;;;;;;23.27;10.20;;;;;;;6.42;77.12;99553.62;1737640;82;21084;-40
2023/01/04 11:12:22;;;;;;;18.10;9.93;;;;;;;6.44;76.59;99546.14;1731626;81;21497;-40
2023/01/04 11:14:49;;;;;;;16.90;9.85;;;;;;;6.50;77.57;99534.17;1742498;82;21481;-38
2023/01/04 11:17:15;;;;;;;20.95;10.70;;;;;;;6.43;74.81;99530.06;1742908;82;21050;-41
2023/01/04 11:19:42;;;;;;;25.32;9.73;;;;;;;6.49;75.80;99524.64;1731019;82;21579;-38
2023/01/04 11:22:30;;;;;;;22.17;10.80;;;;;;;6.42;74.67;99510.08;1718223;82;21853;-40
2023/01/04 11:25:03;;;;;;;17.12;10.00;;;;;;;6.44;75.26;99495.20;1719290;83;21018;-39
2023/01/04 11:27:37;;;;;;;20.82;10.60;;;;;;;6.37;74.81;99491.09;1722799;83;21003;-39
2023/01/04 11:30:19;;;;;;;19.92;10.38;;;;;;;6.38;75.49;99480.19;1722064;82;21003;-40
2023/01/04 11:33:05;;;;;;;19.10;10.13;;;;;;;6.37;75.35;99470.64;1720088;83;21190;-38
2023/01/04 11:35:50;;;;;;;23.50;11.50;;;;;;;6.22;74.55;99466.38;1718915;83;21536;-42
2023/01/04 11:38:24;;;;;;;22.00;10.43;;;;;;;6.19;74.70;99461.71;1722991;83;21503;-38
2023/01/04 11:41:04;;;;;;;17.92;10.65;;;;;;;6.29;75.50;99457.85;1723284;83;21039;-42
2023/01/04 11:43:32;;;;;;;16.87;9.75;;;;;;;6.11;74.03;99452.81;1723405;83;20975;-39
2023/01/04 11:46:18;;;;;;;19.37;8.70;;;;;;;6.26;75.56;99441.84;1704747;83;21047;-40
2023/01/04 11:48:47;;;;;;;21.68;10.10;;;;;;;6.20;74.84;99428.98;1724043;83;21040;-40
2023/01/04 11:51:27;;;;;;;17.57;9.10;;;;;;;6.17;74.46;99421.71;1726854;82;20991;-40
2023/01/04 11:54:17;;;;;;;15.98;9.40;;;;;;;6.20;74.52;99424.23;1698758;82;21019;-42
2023/01/04 11:57:08;;;;;;;25.50;9.75;;;;;;;6.22;74.66;99421.10;1718550;82;21003;-40
2023/01/04 11:59:33;;;;;;;17.30;9.13;;;;;;;6.17;74.21;99413.87;1706549;82;21546;-41
2023/01/04 12:02:24;;;;;;;22.13;10.40;;;;;;;6.19;74.24;99411.63;1731783;82;21058;-38
2023/01/04 12:04:52;;;;;;;23.57;9.68;;;;;;;6.20;74.11;99397.66;1716656;81;20971;-39
2023/01/04 12:07:33;;;;;;;15.23;9.05;;;;;;;6.18;73.66;99392.94;1719401;82;20992;-41
2023/01/04 12:10:03;;;;;;;16.75;9.90;;;;;;;6.22;73.74;99392.38;1698309;83;21487;-42
2023/01/04 12:12:32;;;;;;;21.00;9.73;;;;;;;6.24;74.10;99381.42;1700368;82;20985;-39
2023/01/04 12:15:03;;;;;;;23.60;10.93;;;;;;;6.27;74.03;99378.70;1722759;82;20952;-40
2023/01/04 12:17:53;;;;;;;22.77;10.72;;;;;;;6.29;74.38;99367.75;1717350;82;21564;-41
2023/01/04 12:20:20;;;;;;;22.75;10.35;;;;;;;6.29;74.21;99360.78;1700308;81;21008;-39
2023/01/04 12:22:47;;;;;;;20.55;10.98;;;;;;;6.25;74.24;99355.72;1702122;84;20991;-40
2023/01/04 12:25:42;;;;;;;19.32;10.90;;;;;;;6.22;73.88;99350.59;1724043;82;20969;-40
2023/01/04 12:28:34;;;;;;;25.30;11.10;;;;;;;6.24;74.07;99344.43;1695585;82;20977;-42
2023/01/04 12:31:26;;;;;;;19.62;10.38;;;;;;;6.19;73.95;99337.67;1701577;84;20998;-39
2023/01/04 12:34:14;;;;;;;21.82;11.43;;;;;;;6.21;74.47;99322.80;1702683;84;21027;-41
2023/01/04 12:36:51;;;;;;;29.50;12.70;;;;;;;6.24;74.18;99300.47;1700309;84;20977;-40
2023/01/04 12:39:28;;;;;;;23.07;11.48;;;;;;;6.17;74.62;99291.16;1728035;82;20995;-42